x

Texas Tower #4 - 75 Nm East Of Long Beach, Nj (44066) Wave Buoy

8:50pm - Sat 27th May 2017 All times are EDT. -4 hours from GMT.

  • Sig Wave height 2.0ft
  • Swell Direction
  • Peak Period 8s
  • Average Period 6s
  • Wind
    7mph, 7mph gusts
  • Sea Temp 57°f
  • Air Temp 58°f
  • Sea Pressure 1013.4mb
  • Texas Tower #4 - 75 Nm East Of Long Beach, Nj
  • Texas Tower #4 - 75 Nm East Of Long Beach, Nj

More Historic Weather Station data

Upgrade to MSW Pro to gain access to the past 30 days of data for over 8000 Wavebouys and Weather Stations around the globe.

Join Pro

Comparision Forecast

View Surf forecast
   
Sat 05/27 8:50pm 2ft 8s 6s 7 7 mph 1013.4mb 57f 58f
7:50pm 2ft 8s 6s 4 4 mph 1013.2mb 57f 58f
6:50pm 2.5ft 8s 6s 4 7 mph 1013.1mb 59f 59f
5:50pm 2.5ft 8s 6s 4 7 mph 1012.6mb 60f 60f
4:50pm 2.5ft 8s 5s 2 2 mph 1012.7mb 60f 60f
3:50pm 3ft 8s 6s 2 2 mph 1012.6mb 61f 60f
2:50pm 2.5ft 8s 6s 2 2 mph 1012.6mb 60f 60f
1:50pm 3ft 6s 5s 2 2 mph 1012.6mb 59f 59f
12:50pm 3ft 6s 6s 4 7 mph 1012.6mb 58f 59f
11:50am 3.5ft 6s 6s 4 7 mph 1012.5mb 57f 58f
10:50am 3.5ft 7s 6s 7 7 mph 1012.5mb 56f 57f
9:50am 3.5ft 7s 6s 4 4 mph 1012.1mb 55f 57f
8:50am 4ft 7s 6s 4 4 mph 1011.9mb 55f 56f
7:50am 3.5ft 8s 6s 4 4 mph 1011.9mb 55f 56f
6:50am 3.5ft 7s 6s 9 9 mph 1011.4mb 55f 57f
5:50am 4ft 8s 6s 7 7 mph 1010.9mb 55f 56f
4:50am 4ft 7s 6s 7 7 mph 1010.3mb 55f 56f
3:50am 4.5ft 8s 6s 9 9 mph 1009.7mb 55f 58f
2:50am 4.5ft 8s 6s 9 11 mph 1009.5mb 55f 57f
1:50am 5ft 7s 6s 13 16 mph 1009.1mb 55f 59f
12:50am 5ft 7s 6s 16 18 mph 1008.8mb 55f 60f
Fri 05/26 11:50pm 6ft 7s 6s 13 18 mph 1008.6mb 55f 59f
10:50pm 6ft 8s 6s 13 16 mph 1007.9mb 55f 59f
9:50pm 6ft 8s 6s 13 16 mph 1007.3mb 55f 60f
8:50pm 6ft 9s 6s 16 18 mph 1006.2mb 55f 59f
7:50pm 6.5ft 8s 6s 16 18 mph 1005.7mb 55f 59f
6:50pm 6.5ft 8s 6s 16 18 mph 1005.1mb 55f 60f
5:50pm 6ft 8s 6s 16 20 mph 1004.5mb 55f 60f
4:50pm 6ft 8s 6s 13 16 mph 1004.4mb 55f 58f
3:50pm 6ft 8s 6s 16 18 mph 1004.3mb 55f 58f
2:50pm 7ft 8s 6s 13 18 mph 1004.2mb 55f 57f
1:50pm 6ft 8s 6s 13 18 mph 1004.1mb 55f 57f
12:50pm 7ft 8s 6s 18 20 mph 1003.5mb 55f 58f
11:50am 7ft 9s 6s 18 22 mph 1003.2mb 55f 57f
10:50am 7ft 8s 6s 18 22 mph 1002.8mb 54f 57f
9:50am 7ft 8s 6s 20 22 mph 1002.3mb 54f 57f
8:50am 6.5ft 9s 6s 16 18 mph 1002.4mb 54f 56f
7:50am 7.5ft 8s 6s 18 22 mph 1001.4mb 54f 56f
6:50am 7ft 10s 6s 18 20 mph 1000.5mb 53f 56f
5:50am 7ft 9s 6s 16 20 mph 999.7mb 53f 56f
4:50am 7ft 10s 6s 18 20 mph 999.2mb 53f 55f
3:50am 7ft 8s 6s 13 16 mph 999.2mb 53f 55f
2:50am 6.5ft 8s 6s 18 22 mph 998.9mb 53f 57f
1:50am 6ft 8s 6s 18 22 mph 998.8mb 54f 57f
12:50am 5.5ft 8s 6s 18 20 mph 998.6mb 54f 56f
Thu 05/25 11:50pm 6ft 9s 6s 4 9 mph 997.9mb 53f 58f
10:50pm 6ft 8s 6s 9 11 mph 998.3mb 53f 57f
9:50pm 6ft 8s 6s 22 25 mph 999.1mb 53f 59f
8:50pm 6ft 8s 7s 16 18 mph 999.3mb 53f 59f
7:50pm 6ft 8s 7s 11 13 mph 999.6mb 54f 59f
6:50pm 5ft 8s 6s 9 11 mph 999.5mb 54f 58f
5:50pm 4.5ft 8s 6s 9 11 mph 1000.5mb 54f 58f
4:50pm 4ft 6s 5s 9 9 mph 999.7mb 54f 58f
3:50pm 4ft 8s 5s 11 13 mph 1001.1mb 54f 58f
2:50pm 4ft 8s 5s 13 16 mph 1001.6mb 54f 58f
1:50pm 4.5ft 8s 5s 9 9 mph 1001.7mb 53f 58f
12:50pm 4.5ft 7s 5s 9 11 mph 1002.1mb 53f 58f
11:50am 4.5ft 6s 5s 11 13 mph 1002.3mb 53f 57f
10:50am 4.5ft 6s 5s 13 20 mph 1002.7mb 52f 56f
9:50am 4.5ft 6s 5s 13 16 mph 1003.1mb 52f 55f
8:50am 5ft 7s 5s 13 18 mph 1003.9mb 52f 55f
7:50am 5ft 7s 6s 16 18 mph 1003.8mb 52f 55f
6:50am 5ft 7s 5s 13 16 mph 1004.3mb 52f 54f
5:50am 4.5ft 7s 5s 16 18 mph 1005.1mb 52f 54f
4:50am 5.5ft 7s 6s 11 16 mph 1005.9mb 52f 54f
3:50am 5.5ft 8s 6s 13 13 mph 1006.8mb 52f 53f
2:50am 5.5ft 8s 6s 13 16 mph 1006.9mb 53f 53f
1:50am 6ft 8s 6s 11 11 mph 1007.4mb 53f 53f
12:50am 6ft 7s 6s 16 18 mph 1008.6mb 53f 53f
Wed 05/24 11:50pm 7ft 7s 6s 16 18 mph 1008.8mb 53f 53f
10:50pm 7ft 7s 6s 16 20 mph 1008.4mb 53f 53f
9:50pm 7ft 8s 6s 16 18 mph 1008.4mb 53f 52f
8:50pm 6.5ft 8s 6s 18 22 mph 1008.2mb 53f 52f
7:50pm 6.5ft 7s 6s 16 18 mph 1008.1mb 53f 53f
6:50pm 6.5ft 8s 6s 18 20 mph 1006.8mb 53f 53f
5:50pm 6ft 8s 6s 20 25 mph 1006.5mb 53f 54f
4:50pm 6ft 8s 5s 20 25 mph 1006.2mb 53f 54f
3:50pm 6ft 7s 5s 20 22 mph 1006.4mb 53f 54f
2:50pm 6ft 7s 5s 20 25 mph 1005.5mb 53f 54f
1:50pm 6.5ft 7s 5s 20 22 mph 1005.4mb 53f 53f
12:50pm 6ft 7s 5s 18 22 mph 1005.5mb 54f 54f
11:50am 6ft 6s 5s 20 22 mph 1005.3mb 54f 54f
10:50am 6ft 6s 5s 18 22 mph 1005.2mb 54f 54f
9:50am 5.5ft 6s 5s 18 22 mph 1004.1mb 54f 54f
8:50am 5ft 6s 5s 22 29 mph 1003.9mb 54f 54f
7:50am 4.5ft 6s 5s 22 27 mph 1004.3mb 54f 54f
6:50am 4.5ft 5s 4s 22 27 mph 1004.5mb 54f 54f
5:50am 4ft 6s 5s 22 27 mph 1004.4mb 54f 54f
4:50am 3.5ft 7s 5s 18 22 mph 1004.7mb 54f 54f
3:50am 3.5ft 7s 5s 18 20 mph 1004.9mb 54f 54f
2:50am 3.5ft 7s 5s 16 18 mph 1005.7mb 54f 55f